Airfield :
LOGIN :

Register | Disclaimer

   EN    FR    IT 

 










Legend :    VFR   Marginal VFR   IFR   Intensive IFR   Very Intensive IFR
Visi :
Ceiling :
>= 8 km
>= 3000ft
5 to 8 km
1000 to 3000 ft
1500m to 5 km
500 to 1000 ft
800 to 1500m
200 to 500 ft
< 800m
< 200 ft
Symbols :   Thunderstorms  Fog  Heavy snow  Heavy precipitations  Wind > 20 kt
SIGMETs :     Misc.  Thunderstorms  Icing  Turbulence  Mountain Waves  Volcanic Ashes






- Airport Elevation : 353 ft
- IATA code : ZAG


LDZA - Zagreb Pleso

CURRENT METAR :
  • 301000Z 03014KT 360V080 9999 FEW047 05/M04 Q1022 NOSIG

EXPIRED METARs :
  • 300930Z 04012KT 360V080 9999 -RA FEW036 05/M03 Q1022 NOSIG
  • 300900Z 06011KT 360V080 CAVOK 05/M03 Q1022 NOSIG
  • 300830Z 03012KT 360V080 9999 FEW030 05/M02 Q1022 NOSIG
  • 300800Z 05007KT 360V100 9999 FEW030 SCT047 05/M01 Q1021 TEMPO 03015KT
  • 300730Z 05012KT 360V080 9999 FEW023 SCT045 05/M01 Q1021 NOSIG

TAF TAF LDZA
Valid from the 30 at 06:00 until the 31 at 06:00 UTC


300525Z 3006/3106 07006KT CAVOK TX07/3012Z TN00/3105Z
TEMPO 3006/3020 03015KT
ATIS : +385 1 6-259-214



MET'MAP, your aeronautical weather chart ! - Copyright ORBIFLY December 2007 - Disclaimer

ORBIFLY MET'MAP TEAM :

Programming & Development : Alexandra Zaïnal
Concept & original design : Baudouin d'Aumeries
Assistance for programming : Marc-Olivier Méhu
Technical & hardware support : Manuel Goepfert

Contact : metmap@orbifly.com




SOURCES & CREDITS :

   NOAA